Startpagina
METAR-TAF:

METAR-TAF

Vliegvelden :

Boise, Idaho, Verenigde Staten

breedte: 43-34-00N, lengte: 116-14-26W, hoogte: 871 m

Actueel weer

Dit bericht is 39 minuten geleden gemaakt, om 12:53 UTC
Wind 4 kt uit het zuidzuidoosten
Temperatuur -1°C
Vochtigheid 80%
Druk 1022 hPa
Zicht: 16.1 km
Onbewolkt

METAR: KBOI 161253Z AUTO 16004KT 10SM CLR M01/M04 A3017 RMK AO2 SLP228 T10111039

Tijdstip: 06:32 (13:32 UTC)

Verwachting

Dit bericht is 2 uur en het 3 minuten geleden gemaakt, om 11:29 UTC
Verwachting geldig van 16 om 12 UTC tot 17 om 12 UTC
Wind 4 kt uit variabele richting
Zicht: 10 km
Verspreide wolken op 20000 ft
Van 16 om 1800 UTC
Wind 5 kt uit het noordwesten
Zicht: 10 km
Verspreide wolken op 10000 ft
Gebroken wolken op 20000 ft

TAF: KBOI 161129Z 1612/1712 VRB04KT P6SM SCT200 FM161800 32005KT P6SM SCT100 BKN200

Waarnemingen en weersverwachtingen van meer dan 4000 vliegvelden (METAR en TAF).

De beschikbare stations zijn de gele en rode punten op de kaart.

Ga met uw muis naar het station om de naam te zien.

Klik dan om waarnemingen en weersverwachtingen te zien.

kaart wijzigen: klik op de groene knoppen met een zwart kruis om in te zoomen, op de groene knop met een streepje om uit te zoomen of op de groene pijlen voor aangrenzende kaarten.


METAR-TAF: